Yoder, IN (46798)

7:23 PM EDT on July 06, 2015 (GMT -0400)
Zanesville | | Change Station
CLOSE
Current Station
Personal Weather Station
Location: Roanoke, IN
Elevation: 823 ft
Nearby Weather Stations

Elev 823 ft 40.92 °N, 85.29 °W | Updated 4 minutes ago

Haze
Haze
82.8 °F
Feels Like 90 °F
N
1.1
Wind Variable Wind from East

Today
High -- | Low -- °F
--% Chance of Precip.
Yesterday
High -- | Low -- °F
Precip. -- in
6:15 AM 9:15 PM
Waning Gibbous, 71% visible
Pressure 29.95 in
Visibility 6.0 miles
Clouds Scattered Clouds 4700 ft
Heat Index 90 °F
Dew Point 74 °F
Humidity 76%
Rainfall 0.00 in
Snow Depth Not available.
UV 2 out of 12
Pollen 3.80 out of 12
Air Quality Not available.
Flu Activity Not available.
METAR KFWA 062254Z 20011KT 6SM HZ SCT047 28/19 A2996 RMK AO2 SLP140 T02830189

More Conditions Fewer Conditions

Pressure 29.95 in
Visibility 6.0 miles
Clouds Scattered Clouds 4700 ft
Heat Index 90 °F
Dew Point 74 °F
Humidity 76%
Rainfall 0.00 in
Snow Depth Not available.
UV 2 out of 12
Pollen 3.80 out of 12
Air Quality Not available.
Flu Activity Not available.
METAR KFWA 062254Z 20011KT 6SM HZ SCT047 28/19 A2996 RMK AO2 SLP140 T02830189

More Conditions Fewer Conditions

10-Day Weather Forecast

×

Almanac

Astronomy

Jul. 06, 2015 Rise Set
Actual Time
Civil Twilight
Nautical Twilight
Astronomical Twilight
Moon
Length of Visible Light
Length of Day
Tomorrow will be .
, % of the Moon is Illuminated

Today's Extremes

State Highs State Lows

Community

WunderPhotos

Upload Photos

1,835,674 photos uploaded!

WunderBlogs® & News

Nearby

Air Quality

  Air Quality AQ Index Pollutant
Not available.

Snow Depth

Station Depth Elevation

Earthquake Activity

City Distance Mag. Time & Date
Minimum magnitude displayed is 2.5.

Coastal Water Temperatures

Place Temperature

Stations

Nearby Weather Stations

Station Location Temp. Windchill Dew Point Humidity Wind Precip. Elev Updated Type